PWSweather.com
Personal Weather Stations
Station Observations
COONRAPIDS
Minneapolis, MN 55433

Minneapolis, MN 55433

Lat: 45.187721, Lon: -93.36828

Elevation: 898

Station Type: Davis Vantage Pro 2

Latest ConditionsUpdated 12:00:00 PM CST Tuesday, Nov 12, 2019
Currently Today's Max Today's Min Today's Average
Temperature 17.4°F-8.1°C 17.4°F-8.1°C 3.3°F-15.9°C 7.4°F-13.7°C
Dew Point 0.5°F-17.5°C 3.7°F-15.7°C -3.4°F-19.7°C -0.6°F-18.1°C
Winds Calm Calm 1.2 mph -1.9 kmh - - 0.0 mph 0.0 kmh
Wind Gusts 2.3 mph3.7 kmh 3.5 mph5.6 kmh - -
Humidity 47% 80% 47% 70%
Pressure 30.47 in1031.8 mb 30.67 in1038.6 mb 30.47 in1031.8 mb -
Hour Temp Dew Point Humidity Winds Wind Gusts Pressure Precip Precip Rate Daily Precip Total
12:00 PM 17.4°F-8.1°C 0.5°F-17.5°C 47% Calm Calm 2.3 mph3.7 kmh 30.47 in1031.8 mb - 0.00 in0.0 mm 0.00 in0.0 mm
11:50 AM 16.5°F-8.6°C -0.3°F-17.9°C 47% Calm Calm 3.5 mph5.6 kmh 30.48 in1032.2 mb - 0.00 in0.0 mm 0.00 in0.0 mm
11:40 AM 16.1°F-8.8°C -0.2°F-17.9°C 48% Calm Calm 2.3 mph3.7 kmh 30.49 in1032.5 mb - 0.00 in0.0 mm 0.00 in0.0 mm
11:30 AM 15.8°F-9.0°C 0.4°F-17.6°C 50% Calm Calm 3.5 mph5.6 kmh 30.49 in1032.5 mb - 0.00 in0.0 mm 0.00 in0.0 mm
11:20 AM 15.4°F-9.2°C 0.5°F-17.5°C 51% Calm Calm -- 30.50 in1032.8 mb - 0.00 in0.0 mm 0.00 in0.0 mm
11:10 AM 15.1°F-9.4°C 0.2°F-17.7°C 51% 1.2 mph SSW1.9 kmh SSW 2.3 mph3.7 kmh 30.50 in1032.8 mb - 0.00 in0.0 mm 0.00 in0.0 mm
11:00 AM 15.0°F-9.4°C 1.7°F-16.8°C 55% Calm Calm 3.5 mph5.6 kmh 30.50 in1032.8 mb - 0.00 in0.0 mm 0.00 in0.0 mm
10:50 AM 15.0°F-9.4°C 2.1°F-16.6°C 56% Calm Calm 1.2 mph1.9 kmh 30.51 in1033.2 mb - 0.00 in0.0 mm 0.00 in0.0 mm
10:40 AM 14.8°F-9.6°C 3.0°F-16.1°C 59% 1.2 mph S1.9 kmh S 3.5 mph5.6 kmh 30.52 in1033.5 mb - 0.00 in0.0 mm 0.00 in0.0 mm
10:30 AM 14.0°F-10.0°C 3.0°F-16.1°C 61% Calm Calm -- 30.53 in1033.9 mb - 0.00 in0.0 mm 0.00 in0.0 mm
10:20 AM 13.6°F-10.2°C 3.0°F-16.1°C 62% Calm Calm 1.2 mph1.9 kmh 30.53 in1033.9 mb - 0.00 in0.0 mm 0.00 in0.0 mm
10:10 AM 12.8°F-10.7°C 1.9°F-16.7°C 61% 1.2 mph S1.9 kmh S 3.5 mph5.6 kmh 30.54 in1034.2 mb - 0.00 in0.0 mm 0.00 in0.0 mm
10:00 AM 13.1°F-10.5°C 1.4°F-17.0°C 59% Calm Calm 2.3 mph3.7 kmh 30.55 in1034.5 mb - 0.00 in0.0 mm 0.00 in0.0 mm
09:50 AM 12.8°F-10.7°C 2.9°F-16.2°C 64% Calm Calm 1.2 mph1.9 kmh 30.55 in1034.5 mb - 0.00 in0.0 mm 0.00 in0.0 mm
09:40 AM 13.0°F-10.6°C 3.4°F-15.9°C 65% Calm Calm 1.2 mph1.9 kmh 30.56 in1034.9 mb - 0.00 in0.0 mm 0.00 in0.0 mm
09:30 AM 12.1°F-11.1°C 3.2°F-16.0°C 67% Calm Calm -- 30.57 in1035.2 mb - 0.00 in0.0 mm 0.00 in0.0 mm
09:20 AM 11.5°F-11.4°C 3.0°F-16.1°C 68% Calm Calm 1.2 mph1.9 kmh 30.57 in1035.2 mb - 0.00 in0.0 mm 0.00 in0.0 mm
09:10 AM 11.2°F-11.6°C 3.4°F-15.9°C 70% Calm Calm -- 30.57 in1035.2 mb - 0.00 in0.0 mm 0.00 in0.0 mm
09:00 AM 10.6°F-11.9°C 3.3°F-15.9°C 72% Calm Calm 2.3 mph3.7 kmh 30.58 in1035.6 mb - 0.00 in0.0 mm 0.00 in0.0 mm
08:50 AM 9.9°F-12.3°C 3.6°F-15.8°C 75% Calm Calm -- 30.58 in1035.6 mb - 0.00 in0.0 mm 0.00 in0.0 mm
08:40 AM 9.2°F-12.7°C 3.7°F-15.7°C 78% Calm Calm -- 30.58 in1035.6 mb - 0.00 in0.0 mm 0.00 in0.0 mm
08:30 AM 8.2°F-13.2°C 3.0°F-16.1°C 79% Calm Calm -- 30.59 in1035.9 mb - 0.00 in0.0 mm 0.00 in0.0 mm
08:20 AM 7.4°F-13.7°C 2.5°F-16.4°C 80% Calm Calm -- 30.59 in1035.9 mb - 0.00 in0.0 mm 0.00 in0.0 mm
08:10 AM 6.8°F-14.0°C 1.9°F-16.7°C 80% Calm Calm -- 30.58 in1035.6 mb - 0.00 in0.0 mm 0.00 in0.0 mm
08:00 AM 6.3°F-14.3°C 1.4°F-17.0°C 80% Calm Calm -- 30.58 in1035.6 mb - 0.00 in0.0 mm 0.00 in0.0 mm
07:50 AM 5.7°F-14.6°C 0.8°F-17.3°C 80% Calm Calm -- 30.59 in1035.9 mb - 0.00 in0.0 mm 0.00 in0.0 mm
07:40 AM 5.2°F-14.9°C 0.4°F-17.6°C 80% Calm Calm -- 30.59 in1035.9 mb - 0.00 in0.0 mm 0.00 in0.0 mm
07:30 AM 4.9°F-15.1°C -0.2°F-17.9°C 79% Calm Calm -- 30.59 in1035.9 mb - 0.00 in0.0 mm 0.00 in0.0 mm
07:20 AM 4.7°F-15.2°C -0.4°F-18.0°C 79% Calm Calm -- 30.59 in1035.9 mb - 0.00 in0.0 mm 0.00 in0.0 mm
07:10 AM 4.5°F-15.3°C -0.6°F-18.1°C 79% Calm Calm -- 30.58 in1035.6 mb - 0.00 in0.0 mm 0.00 in0.0 mm
07:00 AM 4.2°F-15.4°C -0.9°F-18.3°C 79% Calm Calm -- 30.59 in1035.9 mb - 0.00 in0.0 mm 0.00 in0.0 mm
06:50 AM 3.5°F-15.8°C -1.9°F-18.8°C 78% Calm Calm -- 30.58 in1035.6 mb - 0.00 in0.0 mm 0.00 in0.0 mm
06:40 AM 3.3°F-15.9°C -2.0°F-18.9°C 78% Calm Calm -- 30.59 in1035.9 mb - 0.00 in0.0 mm 0.00 in0.0 mm
06:30 AM 3.5°F-15.8°C -1.8°F-18.8°C 78% Calm Calm -- 30.59 in1035.9 mb - 0.00 in0.0 mm 0.00 in0.0 mm
06:20 AM 3.5°F-15.8°C -2.1°F-18.9°C 77% Calm Calm -- 30.60 in1036.2 mb - 0.00 in0.0 mm 0.00 in0.0 mm
06:10 AM 3.6°F-15.8°C -2.0°F-18.9°C 77% Calm Calm -- 30.60 in1036.2 mb - 0.00 in0.0 mm 0.00 in0.0 mm
06:00 AM 3.9°F-15.6°C -1.5°F-18.6°C 78% Calm Calm -- 30.60 in1036.2 mb - 0.00 in0.0 mm 0.00 in0.0 mm
05:50 AM 4.0°F-15.6°C -1.3°F-18.5°C 78% Calm Calm -- 30.61 in1036.6 mb - 0.00 in0.0 mm 0.00 in0.0 mm
05:40 AM 4.0°F-15.6°C -1.6°F-18.7°C 77% Calm Calm -- 30.61 in1036.6 mb - 0.00 in0.0 mm 0.00 in0.0 mm
05:30 AM 3.9°F-15.6°C -1.7°F-18.7°C 77% Calm Calm -- 30.61 in1036.6 mb - 0.00 in0.0 mm 0.00 in0.0 mm
05:20 AM 3.9°F-15.6°C -2.0°F-18.9°C 76% Calm Calm -- 30.61 in1036.6 mb - 0.00 in0.0 mm 0.00 in0.0 mm
05:10 AM 4.0°F-15.6°C -1.9°F-18.8°C 76% Calm Calm -- 30.61 in1036.6 mb - 0.00 in0.0 mm 0.00 in0.0 mm
05:00 AM 4.0°F-15.6°C -1.9°F-18.8°C 76% Calm Calm -- 30.62 in1036.9 mb - 0.00 in0.0 mm 0.00 in0.0 mm
04:50 AM 4.0°F-15.6°C -1.9°F-18.8°C 76% Calm Calm -- 30.62 in1036.9 mb - 0.00 in0.0 mm 0.00 in0.0 mm
04:40 AM 4.1°F-15.5°C -1.8°F-18.8°C 76% Calm Calm -- 30.62 in1036.9 mb - 0.00 in0.0 mm 0.00 in0.0 mm
04:30 AM 4.1°F-15.5°C -1.8°F-18.8°C 76% Calm Calm -- 30.63 in1037.3 mb - 0.00 in0.0 mm 0.00 in0.0 mm
04:20 AM 4.0°F-15.6°C -2.2°F-19.0°C 75% Calm Calm -- 30.63 in1037.3 mb - 0.00 in0.0 mm 0.00 in0.0 mm
04:10 AM 3.9°F-15.6°C -2.3°F-19.1°C 75% Calm Calm -- 30.63 in1037.3 mb - 0.00 in0.0 mm 0.00 in0.0 mm
04:00 AM 3.8°F-15.7°C -2.4°F-19.1°C 75% Calm Calm -- 30.63 in1037.3 mb - 0.00 in0.0 mm 0.00 in0.0 mm
03:50 AM 3.6°F-15.8°C -2.8°F-19.3°C 74% Calm Calm -- 30.63 in1037.3 mb - 0.00 in0.0 mm 0.00 in0.0 mm
03:40 AM 3.4°F-15.9°C -3.0°F-19.4°C 74% Calm Calm -- 30.63 in1037.3 mb - 0.00 in0.0 mm 0.00 in0.0 mm
03:30 AM 3.4°F-15.9°C -3.4°F-19.7°C 73% Calm Calm -- 30.64 in1037.6 mb - 0.00 in0.0 mm 0.00 in0.0 mm
03:20 AM 3.6°F-15.8°C -3.2°F-19.6°C 73% Calm Calm -- 30.64 in1037.6 mb - 0.00 in0.0 mm 0.00 in0.0 mm
03:10 AM 3.7°F-15.7°C -3.3°F-19.6°C 72% Calm Calm -- 30.64 in1037.6 mb - 0.00 in0.0 mm 0.00 in0.0 mm
03:00 AM 4.0°F-15.6°C -3.3°F-19.6°C 71% Calm Calm -- 30.64 in1037.6 mb - 0.00 in0.0 mm 0.00 in0.0 mm
02:50 AM 4.4°F-15.3°C -2.9°F-19.4°C 71% Calm Calm -- 30.64 in1037.6 mb - 0.00 in0.0 mm 0.00 in0.0 mm
02:40 AM 4.6°F-15.2°C -2.7°F-19.3°C 71% Calm Calm -- 30.64 in1037.6 mb - 0.00 in0.0 mm 0.00 in0.0 mm
02:30 AM 4.9°F-15.1°C -2.5°F-19.2°C 71% Calm Calm -- 30.64 in1037.6 mb - 0.00 in0.0 mm 0.00 in0.0 mm
02:20 AM 5.1°F-14.9°C -2.6°F-19.2°C 70% Calm Calm -- 30.64 in1037.6 mb - 0.00 in0.0 mm 0.00 in0.0 mm
02:10 AM 5.3°F-14.8°C -2.4°F-19.1°C 70% Calm Calm -- 30.64 in1037.6 mb - 0.00 in0.0 mm 0.00 in0.0 mm
02:00 AM 5.4°F-14.8°C -2.3°F-19.1°C 70% Calm Calm -- 30.64 in1037.6 mb - 0.00 in0.0 mm 0.00 in0.0 mm
01:50 AM 5.4°F-14.8°C -2.3°F-19.1°C 70% Calm Calm -- 30.65 in1037.9 mb - 0.00 in0.0 mm 0.00 in0.0 mm
01:40 AM 5.4°F-14.8°C -2.6°F-19.2°C 69% Calm Calm -- 30.65 in1037.9 mb - 0.00 in0.0 mm 0.00 in0.0 mm
01:30 AM 5.6°F-14.7°C -2.4°F-19.1°C 69% Calm Calm -- 30.65 in1037.9 mb - 0.00 in0.0 mm 0.00 in0.0 mm
01:20 AM 5.8°F-14.6°C -2.5°F-19.2°C 68% Calm Calm -- 30.66 in1038.3 mb - 0.00 in0.0 mm 0.00 in0.0 mm
01:10 AM 6.0°F-14.4°C -2.3°F-19.1°C 68% Calm Calm -- 30.66 in1038.3 mb - 0.00 in0.0 mm 0.00 in0.0 mm
01:00 AM 6.1°F-14.4°C -2.2°F-19.0°C 68% Calm Calm -- 30.66 in1038.3 mb - 0.00 in0.0 mm 0.00 in0.0 mm
12:50 AM 6.2°F-14.3°C -2.1°F-18.9°C 68% Calm Calm -- 30.66 in1038.3 mb - 0.00 in0.0 mm 0.00 in0.0 mm
12:40 AM 6.3°F-14.3°C -2.3°F-19.1°C 67% Calm Calm -- 30.66 in1038.3 mb - 0.00 in0.0 mm 0.00 in0.0 mm
12:30 AM 6.5°F-14.2°C -2.1°F-18.9°C 67% Calm Calm -- 30.66 in1038.3 mb - 0.00 in0.0 mm 0.00 in0.0 mm
12:20 AM 6.6°F-14.1°C -2.0°F-18.9°C 67% Calm Calm -- 30.67 in1038.6 mb - 0.00 in0.0 mm 0.00 in0.0 mm
12:10 AM 6.8°F-14.0°C -2.2°F-19.0°C 66% Calm Calm -- 30.67 in1038.6 mb - 0.00 in0.0 mm 0.00 in0.0 mm
12:00 AM 6.9°F-13.9°C -2.0°F-18.9°C 66% Calm Calm -- 30.67 in1038.6 mb - 0.00 in0.0 mm 0.00 in0.0 mm